Time;durP1;ratioP1;P1;durP2;ratioP2;P2;SDS_P1;SDS_P2;PMS_P1;PMS_P2;Temp;Humidity;BMP_temperature;BMP_pressure;BME280_temperature;BME280_humidity;BME280_pressure;Samples;Min_cycle;Max_cycle;Signal;HPM_P1;HPM_P2
2023/01/16 04:03:26;;;;;;;0.95;0.50;;;14.00;52.30;;;;;;4889643;23;47697;-74
2023/01/16 04:06:17;;;;;;;0.28;0.28;;;14.00;52.30;;;;;;4885480;28;45550;-75
2023/01/16 04:08:43;;;;;;;0.70;0.40;;;14.00;52.30;;;;;;4878256;28;46908;-76
2023/01/16 04:11:08;;;;;;;0.60;0.40;;;14.00;52.30;;;;;;4895349;28;45175;-75
2023/01/16 04:13:36;;;;;;;0.60;0.35;;;14.00;52.30;;;;;;4871819;28;44740;-74
2023/01/16 04:16:04;;;;;;;0.43;0.30;;;14.00;52.30;;;;;;4886458;28;46000;-76
2023/01/16 04:18:31;;;;;;;0.45;0.40;;;14.00;52.20;;;;;;4895714;28;46892;-71
2023/01/16 04:20:57;;;;;;;0.28;0.25;;;14.00;52.30;;;;;;4884470;28;45464;-73
2023/01/16 04:23:22;;;;;;;0.30;0.28;;;14.00;52.20;;;;;;4876462;28;45568;-73
2023/01/16 04:25:48;;;;;;;0.63;0.30;;;14.00;52.20;;;;;;4897621;28;45648;-71
2023/01/16 04:28:13;;;;;;;0.28;0.22;;;14.00;52.20;;;;;;4898035;28;45145;-71
2023/01/16 04:30:39;;;;;;;0.45;0.28;;;14.00;52.20;;;;;;4910826;28;44879;-73
2023/01/16 04:33:05;;;;;;;0.43;0.30;;;14.00;52.80;;;;;;4921108;28;45281;-72
2023/01/16 04:35:30;;;;;;;0.50;0.30;;;14.00;52.20;;;;;;4893244;28;45514;-72
2023/01/16 04:37:56;;;;;;;0.28;0.28;;;14.00;52.20;;;;;;4922520;28;45223;-73
2023/01/16 04:40:22;;;;;;;0.38;0.28;;;14.00;52.20;;;;;;4899888;28;45498;-71
2023/01/16 04:42:48;;;;;;;0.40;0.30;;;14.00;52.30;;;;;;4907801;28;45265;-72
2023/01/16 04:45:13;;;;;;;0.40;0.28;;;14.00;52.20;;;;;;4878475;28;45118;-73
2023/01/16 04:47:39;;;;;;;0.52;0.20;;;14.00;52.30;;;;;;4875732;28;45248;-72
2023/01/16 04:50:05;;;;;;;0.40;0.30;;;14.00;52.20;;;;;;4906932;28;45200;-72
2023/01/16 04:52:31;;;;;;;1.05;0.30;;;14.00;52.30;;;;;;4897884;28;45538;-72
2023/01/16 04:54:56;;;;;;;0.50;0.38;;;13.90;52.20;;;;;;4892212;28;45732;-73
2023/01/16 04:57:22;;;;;;;0.50;0.38;;;13.90;52.20;;;;;;4917429;28;45517;-73
2023/01/16 04:59:47;;;;;;;0.40;0.35;;;13.90;52.20;;;;;;4900069;28;44945;-72
2023/01/16 05:02:13;;;;;;;0.28;0.20;;;13.90;52.20;;;;;;4902219;28;45225;-72
2023/01/16 05:04:39;;;;;;;0.20;0.20;;;13.90;52.30;;;;;;4902494;28;45233;-72
2023/01/16 05:07:04;;;;;;;0.88;0.50;;;13.90;52.20;;;;;;4909322;28;45658;-73
2023/01/16 05:09:30;;;;;;;0.30;0.30;;;13.90;52.20;;;;;;4891307;28;45525;-71
2023/01/16 05:11:55;;;;;;;0.68;0.20;;;13.90;52.30;;;;;;4904615;28;45288;-72
2023/01/16 05:14:21;;;;;;;0.82;0.30;;;13.90;52.20;;;;;;4893407;28;44787;-72
2023/01/16 05:16:47;;;;;;;1.27;0.47;;;13.90;52.30;;;;;;4879059;28;46594;-72
2023/01/16 05:19:12;;;;;;;0.40;0.20;;;13.90;52.80;;;;;;4893277;28;44641;-72
2023/01/16 05:21:38;;;;;;;0.25;0.20;;;13.90;52.20;;;;;;4918572;28;44986;-72
2023/01/16 05:24:04;;;;;;;0.20;0.20;;;13.90;52.30;;;;;;4902541;28;45152;-73
2023/01/16 05:26:30;;;;;;;0.35;0.30;;;13.90;52.20;;;;;;4878517;28;45565;-72
2023/01/16 05:28:55;;;;;;;0.38;0.25;;;13.90;52.20;;;;;;4871180;28;45760;-71
2023/01/16 05:31:21;;;;;;;0.68;0.38;;;13.90;52.20;;;;;;4924334;28;45248;-73
2023/01/16 05:33:46;;;;;;;0.43;0.30;;;13.90;52.20;;;;;;4893039;28;44723;-74
2023/01/16 05:36:13;;;;;;;0.77;0.30;;;13.90;52.30;;;;;;4908176;28;45321;-73
2023/01/16 05:38:39;;;;;;;1.02;0.57;;;13.90;52.30;;;;;;4888272;28;44972;-73
2023/01/16 05:41:04;;;;;;;0.50;0.30;;;13.90;52.20;;;;;;4893974;28;45512;-73
2023/01/16 05:43:45;;;;;;;0.60;0.30;;;13.90;52.20;;;;;;4893997;28;45328;-73
2023/01/16 05:46:11;;;;;;;0.30;0.30;;;13.90;52.30;;;;;;4899289;28;45490;-74
2023/01/16 05:48:38;;;;;;;0.68;0.40;;;13.90;52.30;;;;;;4880472;28;45628;-73
2023/01/16 05:51:04;;;;;;;0.55;0.35;;;13.90;52.30;;;;;;4893720;28;45074;-73
2023/01/16 05:53:30;;;;;;;0.57;0.50;;;13.80;52.20;;;;;;4905889;28;45063;-73
2023/01/16 05:55:56;;;;;;;0.95;0.43;;;13.80;52.20;;;;;;4849020;28;45536;-74
2023/01/16 05:58:22;;;;;;;0.63;0.40;;;13.80;52.20;;;;;;4863820;28;44964;-73
2023/01/16 06:00:47;;;;;;;0.55;0.38;;;13.90;52.30;;;;;;4879547;28;45452;-74
2023/01/16 06:03:15;;;;;;;0.57;0.30;;;13.80;52.20;;;;;;4879876;28;45534;-74
2023/01/16 06:05:41;;;;;;;0.60;0.38;;;13.80;52.20;;;;;;4877816;28;46154;-73
2023/01/16 06:08:06;;;;;;;1.08;0.40;;;13.80;52.20;;;;;;4863309;28;45547;-73
2023/01/16 06:10:32;;;;;;;0.75;0.40;;;13.80;52.20;;;;;;4897812;28;45609;-73
2023/01/16 06:12:59;;;;;;;0.40;0.40;;;13.80;52.30;;;;;;4882585;28;45081;-73
2023/01/16 06:15:25;;;;;;;0.68;0.20;;;13.80;52.20;;;;;;4877099;28;46886;-72
2023/01/16 06:17:53;;;;;;;0.68;0.35;;;13.80;52.20;;;;;;4884403;28;45805;-74
2023/01/16 06:20:19;;;;;;;0.75;0.50;;;13.80;52.20;;;;;;4867456;28;45453;-73
2023/01/16 06:22:45;;;;;;;0.30;0.30;;;13.80;52.30;;;;;;4863842;28;44926;-73
2023/01/16 06:25:10;;;;;;;0.60;0.35;;;13.80;52.30;;;;;;4883181;28;45656;-73
2023/01/16 06:27:36;;;;;;;0.63;0.30;;;13.80;52.30;;;;;;4902357;28;44960;-73
2023/01/16 06:30:02;;;;;;;1.05;0.40;;;13.80;52.20;;;;;;4891678;28;45659;-74
2023/01/16 06:32:28;;;;;;;0.60;0.40;;;13.80;52.30;;;;;;4865797;28;45594;-73
2023/01/16 06:34:53;;;;;;;0.55;0.40;;;13.80;52.30;;;;;;4881106;28;47253;-73
2023/01/16 06:37:19;;;;;;;0.60;0.40;;;13.80;52.30;;;;;;4896514;28;45571;-74
2023/01/16 06:39:45;;;;;;;0.63;0.40;;;13.80;52.80;;;;;;4881948;28;45270;-73
2023/01/16 06:42:10;;;;;;;0.98;0.30;;;13.80;52.30;;;;;;4896367;28;45575;-74
2023/01/16 06:44:36;;;;;;;0.70;0.40;;;13.80;52.30;;;;;;4900513;28;45541;-73
2023/01/16 06:47:01;;;;;;;0.70;0.50;;;13.80;52.30;;;;;;4903032;28;45632;-73
2023/01/16 06:49:27;;;;;;;0.63;0.30;;;13.80;52.30;;;;;;4884354;28;45730;-72
2023/01/16 06:51:53;;;;;;;1.20;0.70;;;13.80;52.10;;;;;;4886920;28;45317;-74
2023/01/16 06:54:18;;;;;;;2.35;0.80;;;13.50;48.20;;;;;;4863600;28;45661;-72
2023/01/16 06:56:44;;;;;;;2.75;0.80;;;13.10;48.60;;;;;;4885509;28;45460;-73
2023/01/16 06:59:09;;;;;;;2.83;0.63;;;13.00;49.00;;;;;;4901910;28;45464;-74
2023/01/16 07:01:35;;;;;;;1.23;0.60;;;13.10;49.40;;;;;;4899257;28;44955;-73
2023/01/16 07:04:01;;;;;;;2.28;0.98;;;13.20;50.30;;;;;;4886624;28;46894;-72
2023/01/16 07:06:26;;;;;;;6.13;0.73;;;13.50;49.80;;;;;;4879975;28;45324;-73
2023/01/16 07:08:52;;;;;;;1.77;0.63;;;13.70;49.40;;;;;;4903058;28;44907;-73
2023/01/16 07:11:18;;;;;;;1.05;0.60;;;13.90;49.10;;;;;;4883285;28;45123;-73
2023/01/16 07:13:43;;;;;;;1.58;0.80;;;14.10;48.80;;;;;;4903622;28;45190;-73
2023/01/16 07:24:29;;;;;;;2.90;0.50;;;14.90;48.40;;;;;;4889438;28;45496;-73
2023/01/16 07:26:57;;;;;;;1.30;0.40;;;15.00;48.20;;;;;;4870284;28;45204;-72
2023/01/16 07:29:23;;;;;;;1.98;0.70;;;15.20;48.10;;;;;;4882448;28;45668;-73
2023/01/16 07:31:49;;;;;;;2.67;0.40;;;15.40;48.10;;;;;;4899107;28;45041;-72
2023/01/16 07:34:14;;;;;;;0.70;0.40;;;15.50;48.00;;;;;;4887199;28;46566;-73
2023/01/16 07:36:40;;;;;;;1.50;0.60;;;15.60;48.00;;;;;;4868314;28;45270;-73
2023/01/16 07:39:06;;;;;;;0.85;0.60;;;15.70;47.90;;;;;;4869872;28;45258;-72
2023/01/16 07:41:31;;;;;;;2.83;0.57;;;15.70;48.00;;;;;;4900797;28;45257;-73
2023/01/16 07:43:57;;;;;;;3.78;0.60;;;15.70;48.10;;;;;;4877620;28;46862;-73
2023/01/16 07:46:22;;;;;;;1.25;0.73;;;15.90;48.10;;;;;;4881518;28;45548;-73
2023/01/16 07:48:48;;;;;;;0.63;0.45;;;16.00;48.00;;;;;;4900635;28;45317;-73
2023/01/16 07:51:13;;;;;;;7.57;0.52;;;16.10;47.90;;;;;;4898938;28;45307;-73
2023/01/16 07:53:39;;;;;;;0.68;0.50;;;16.30;47.70;;;;;;4899145;28;45425;-73
2023/01/16 07:56:05;;;;;;;3.30;0.57;;;16.40;47.60;;;;;;4883942;28;45260;-74
2023/01/16 07:58:30;;;;;;;0.50;0.22;;;16.60;47.50;;;;;;4896153;28;45172;-74
2023/01/16 08:00:56;;;;;;;1.40;0.40;;;16.70;47.40;;;;;;4894756;28;45674;-73
2023/01/16 08:03:22;;;;;;;1.17;0.60;;;16.80;47.30;;;;;;4900676;28;46944;-74
2023/01/16 08:05:57;;;;;;;2.50;0.68;;;16.90;47.30;;;;;;4905961;28;45559;-72
2023/01/16 08:08:25;;;;;;;6.03;0.40;;;17.10;47.10;;;;;;4881570;28;45731;-74
2023/01/16 08:10:53;;;;;;;0.30;0.30;;;17.30;47.00;;;;;;4899985;28;45895;-73
2023/01/16 08:13:19;;;;;;;1.65;0.50;;;17.40;46.90;;;;;;4881360;28;45344;-73
2023/01/16 08:15:44;;;;;;;0.40;0.22;;;17.50;46.80;;;;;;4880825;28;45491;-73
2023/01/16 08:18:12;;;;;;;3.28;0.40;;;17.70;46.70;;;;;;4907775;28;45238;-73
2023/01/16 08:20:37;;;;;;;1.25;0.52;;;17.80;46.50;;;;;;4889334;28;44988;-73
2023/01/16 08:23:03;;;;;;;0.75;0.50;;;17.90;46.60;;;;;;4869888;28;45545;-73
2023/01/16 08:25:29;;;;;;;0.80;0.50;;;18.00;46.40;;;;;;4879985;28;45315;-72
2023/01/16 08:28:10;;;;;;;1.63;0.63;;;18.20;46.30;;;;;;4889564;28;45549;-71
2023/01/16 08:30:36;;;;;;;0.50;0.30;;;18.30;46.20;;;;;;4887210;28;45303;-73
2023/01/16 08:33:02;;;;;;;0.68;0.40;;;18.40;46.00;;;;;;4898578;28;45657;-72
2023/01/16 08:35:27;;;;;;;1.13;0.43;;;18.50;46.00;;;;;;4866825;28;45555;-73
2023/01/16 08:37:53;;;;;;;3.20;0.60;;;18.50;45.80;;;;;;4898026;28;45364;-73
2023/01/16 08:40:18;;;;;;;1.55;0.32;;;18.50;46.00;;;;;;4897958;28;45254;-72
2023/01/16 08:51:21;;;;;;;1.10;0.40;;;18.80;45.60;;;;;;4890620;28;45181;-73
2023/01/16 08:54:02;;;;;;;0.93;0.50;;;19.00;45.70;;;;;;4889153;28;46162;-72
2023/01/16 08:56:27;;;;;;;0.80;0.60;;;19.10;45.60;;;;;;4878557;28;45644;-74
2023/01/16 08:58:53;;;;;;;0.85;0.35;;;19.20;45.40;;;;;;4895295;28;45466;-72
2023/01/16 09:01:19;;;;;;;0.70;0.40;;;19.30;45.30;;;;;;4897822;28;45531;-72
2023/01/16 09:03:45;;;;;;;1.75;0.43;;;19.40;45.20;;;;;;4900228;28;45256;-72
2023/01/16 09:06:11;;;;;;;0.93;0.52;;;19.60;45.10;;;;;;4897996;28;45534;-72
2023/01/16 09:08:36;;;;;;;0.88;0.30;;;19.70;45.10;;;;;;4912334;28;45626;-72
2023/01/16 09:13:59;;;;;;;2.20;0.30;;;19.90;44.90;;;;;;4890561;28;45710;-73
2023/01/16 09:16:25;;;;;;;2.38;0.73;;;20.00;44.70;;;;;;4873024;28;45284;-72
2023/01/16 09:18:51;;;;;;;5.28;0.82;;;20.10;44.70;;;;;;4883704;28;45425;-73
2023/01/16 09:21:18;;;;;;;1.20;0.22;;;20.20;44.40;;;;;;4881813;28;44818;-72
2023/01/16 09:23:45;;;;;;;1.42;0.47;;;20.30;44.40;;;;;;4911519;28;46226;-72
2023/01/16 09:26:10;;;;;;;0.93;0.40;;;20.40;44.30;;;;;;4898562;28;45142;-73
2023/01/16 09:28:36;;;;;;;2.00;0.40;;;20.50;44.30;;;;;;4886341;28;45121;-73
2023/01/16 09:31:01;;;;;;;0.68;0.47;;;20.60;44.20;;;;;;4899352;28;45180;-72
2023/01/16 09:33:27;;;;;;;2.45;0.43;;;20.70;44.10;;;;;;4899171;28;45430;-72
2023/01/16 09:35:52;;;;;;;0.57;0.40;;;20.80;44.00;;;;;;4884480;28;45585;-72
2023/01/16 09:38:18;;;;;;;4.30;0.30;;;20.90;43.90;;;;;;4911757;28;45526;-72
2023/01/16 09:40:49;;;;;;;0.32;0.30;;;21.00;44.00;;;;;;4899744;28;45177;-73
2023/01/16 09:45:58;;;;;;;0.60;0.40;;;21.20;43.60;;;;;;4896468;28;45039;-73
2023/01/16 09:48:37;;;;;;;1.38;0.40;;;21.20;43.50;;;;;;4899316;28;45317;-72
2023/01/16 09:51:05;;;;;;;0.30;0.30;;;21.40;43.10;;;;;;4894910;28;46405;-72
2023/01/16 09:59:32;;;;;;;1.88;0.40;;;21.60;43.20;;;;;;4891330;28;44965;-72
2023/01/16 10:02:25;;;;;;;1.38;0.40;;;21.70;43.10;;;;;;4888651;28;45264;-72
2023/01/16 10:04:51;;;;;;;0.43;0.30;;;21.80;42.50;;;;;;4905924;28;45468;-73
2023/01/16 10:07:35;;;;;;;0.40;0.30;;;21.90;43.20;;;;;;4900594;28;45253;-72
2023/01/16 10:10:20;;;;;;;0.52;0.40;;;21.90;43.40;;;;;;4903040;28;45598;-72
2023/01/16 10:13:00;;;;;;;0.47;0.38;;;22.00;42.50;;;;;;4915657;28;45414;-72
2023/01/16 10:15:30;;;;;;;1.20;0.50;;;22.00;42.90;;;;;;4900997;28;46932;-72
2023/01/16 10:18:17;;;;;;;0.50;0.30;;;22.10;42.90;;;;;;4917442;28;45441;-73
2023/01/16 10:20:48;;;;;;;1.75;0.40;;;22.20;42.70;;;;;;4896837;28;45501;-74
2023/01/16 10:23:19;;;;;;;1.85;0.30;;;22.20;42.80;;;;;;4895995;28;45094;-73
2023/01/16 10:26:06;;;;;;;0.30;0.25;;;22.30;42.70;;;;;;4918357;28;45401;-73
2023/01/16 10:28:38;;;;;;;0.38;0.25;;;22.30;42.00;;;;;;4903266;28;45686;-73
2023/01/16 10:31:50;;;;;;;0.43;0.20;;;22.40;42.40;;;;;;4901409;28;45013;-73
2023/01/16 10:34:20;;;;;;;1.30;0.40;;;22.30;41.60;;;;;;4891564;28;45649;-71
2023/01/16 10:36:48;;;;;;;0.70;0.38;;;22.30;42.60;;;;;;4919768;28;45506;-72
2023/01/16 10:39:14;;;;;;;0.60;0.40;;;22.30;42.70;;;;;;4885300;28;45115;-71
2023/01/16 10:50:32;;;;;;;1.25;0.40;;;22.50;42.40;;;;;;4896559;28;44596;-71
2023/01/16 10:52:57;;;;;;;0.32;0.30;;;22.60;42.30;;;;;;4876424;28;45268;-72
2023/01/16 10:55:23;;;;;;;1.95;0.30;;;22.70;42.30;;;;;;4891845;28;45431;-71
2023/01/16 10:58:26;;;;;;;2.40;0.43;;;22.70;42.30;;;;;;4903080;28;45306;-71
2023/01/16 11:01:01;;;;;;;1.30;0.30;;;22.80;41.70;;;;;;4915021;28;45069;-71
2023/01/16 11:03:35;;;;;;;3.20;0.60;;;22.80;42.30;;;;;;4900612;28;45482;-71
2023/01/16 11:06:19;;;;;;;0.60;0.30;;;22.90;42.00;;;;;;4887537;28;45444;-71
2023/01/16 11:09:01;;;;;;;3.20;0.28;;;22.90;41.60;;;;;;4898438;28;45617;-74
2023/01/16 11:20:29;;;;;;;1.02;0.20;;;23.10;41.70;;;;;;4920160;28;45667;-74
2023/01/16 11:22:59;;;;;;;0.50;0.20;;;23.10;41.90;;;;;;4904060;28;45098;-72
2023/01/16 11:25:26;;;;;;;1.55;0.40;;;23.20;42.00;;;;;;4889925;28;45200;-74
2023/01/16 11:27:51;;;;;;;1.08;0.40;;;23.20;41.90;;;;;;4895089;28;44704;-74
2023/01/16 11:30:22;;;;;;;1.70;0.73;;;23.20;41.80;;;;;;4917349;28;45675;-74
2023/01/16 11:32:48;;;;;;;0.40;0.28;;;23.30;41.70;;;;;;4903726;28;45109;-74
2023/01/16 11:35:15;;;;;;;0.22;0.20;;;23.30;42.40;;;;;;4920936;28;45201;-73
2023/01/16 11:37:42;;;;;;;0.63;0.30;;;23.40;41.70;;;;;;4920663;28;45881;-74
2023/01/16 11:40:20;;;;;;;0.47;0.30;;;23.40;41.70;;;;;;4920875;28;45777;-74
2023/01/16 11:46:02;;;;;;;0.40;0.30;;;23.50;41.30;;;;;;4912716;28;44717;-74
2023/01/16 11:48:37;;;;;;;0.80;0.30;;;23.50;41.50;;;;;;4913810;28;45131;-74
2023/01/16 11:51:04;;;;;;;0.32;0.30;;;23.50;41.40;;;;;;4928640;28;45455;-74
2023/01/16 11:53:31;;;;;;;0.32;0.20;;;23.50;41.40;;;;;;4885701;28;45231;-74
2023/01/16 11:56:18;;;;;;;1.05;0.30;;;23.60;42.00;;;;;;4885589;28;45295;-71
2023/01/16 11:59:06;;;;;;;0.40;0.20;;;23.60;41.70;;;;;;4910038;28;45527;-69
2023/01/16 12:04:35;;;;;;;0.37;0.30;;;23.70;40.70;;;;;;4938801;28;45090;-71
2023/01/16 12:07:23;;;;;;;0.90;0.38;;;23.70;41.30;;;;;;4936167;28;45528;-72
2023/01/16 12:09:54;;;;;;;9.82;0.50;;;23.70;40.60;;;;;;4936242;28;45137;-72
2023/01/16 12:15:39;;;;;;;0.20;0.10;;;23.80;41.10;;;;;;4915749;28;45430;-72
2023/01/16 12:18:08;;;;;;;0.68;0.30;;;23.80;41.20;;;;;;4873896;28;44754;-72
2023/01/16 12:20:43;;;;;;;0.68;0.30;;;23.90;41.00;;;;;;4910426;28;45315;-70
2023/01/16 12:23:15;;;;;;;0.35;0.28;;;23.90;40.80;;;;;;4905677;28;47005;-71
2023/01/16 12:26:08;;;;;;;0.20;0.20;;;23.90;41.10;;;;;;4909749;28;45021;-70
2023/01/16 12:28:51;;;;;;;;;;;24.00;40.80;;;;;;4917595;28;45264;-72
2023/01/16 12:31:41;;;;;;;0.20;0.10;;;24.00;40.20;;;;;;4900857;28;45180;-73
2023/01/16 12:34:45;;;;;;;0.30;0.30;;;24.00;40.60;;;;;;4918118;28;46081;-73
2023/01/16 12:37:20;;;;;;;0.32;0.20;;;24.10;40.50;;;;;;4916976;28;45264;-71
2023/01/16 12:40:17;;;;;;;0.68;0.20;;;24.10;40.70;;;;;;4928803;28;45594;-73
2023/01/16 12:43:18;;;;;;;0.22;0.22;;;24.20;40.60;;;;;;4922425;28;45315;-70
2023/01/16 12:45:54;;;;;;;0.17;0.17;;;24.20;41.00;;;;;;4919596;28;47245;-71
2023/01/16 12:48:44;;;;;;;0.65;0.28;;;24.20;40.50;;;;;;4913894;28;45137;-72
2023/01/16 12:51:47;;;;;;;0.20;0.20;;;24.30;40.40;;;;;;4901258;28;45437;-72
2023/01/16 12:54:30;;;;;;;2.45;0.30;;;24.30;40.30;;;;;;4898050;28;44859;-73
2023/01/16 12:56:59;;;;;;;1.15;0.30;;;24.30;40.70;;;;;;4917976;28;46400;-72
2023/01/16 12:59:30;;;;;;;2.50;0.20;;;24.40;40.80;;;;;;4927004;28;45259;-72
2023/01/16 13:02:02;;;;;;;0.30;0.20;;;24.40;40.80;;;;;;4906150;28;45058;-71
2023/01/16 13:04:31;;;;;;;0.50;0.20;;;24.40;40.80;;;;;;4885097;28;45708;-75
2023/01/16 13:06:57;;;;;;;0.40;0.20;;;24.40;40.70;;;;;;4884050;28;45443;-72
2023/01/16 13:09:43;;;;;;;0.57;0.30;;;24.50;40.80;;;;;;4889300;28;45118;-72
2023/01/16 13:15:09;;;;;;;0.63;0.17;;;24.50;40.40;;;;;;4928305;28;45260;-71
2023/01/16 13:17:47;;;;;;;0.53;0.30;;;24.60;40.60;;;;;;4934234;28;45493;-72
2023/01/16 13:20:14;;;;;;;0.45;0.22;;;24.60;40.50;;;;;;4905710;28;44878;-72
2023/01/16 13:22:55;;;;;;;0.43;0.20;;;24.60;40.70;;;;;;4884486;28;45209;-73
2023/01/16 13:25:33;;;;;;;0.30;0.30;;;24.60;40.50;;;;;;4889474;28;45322;-72
2023/01/16 13:28:13;;;;;;;0.25;0.20;;;24.60;40.50;;;;;;4915847;28;45559;-73
2023/01/16 13:30:39;;;;;;;0.40;0.20;;;24.60;40.40;;;;;;4906674;28;45586;-71
2023/01/16 13:33:09;;;;;;;1.02;0.38;;;24.60;40.70;;;;;;4903364;28;45226;-73
2023/01/16 13:35:42;;;;;;;0.30;0.20;;;24.60;40.70;;;;;;4918634;28;45432;-72
2023/01/16 13:38:27;;;;;;;0.93;0.20;;;24.60;40.70;;;;;;4923298;28;45561;-74
2023/01/16 13:41:16;;;;;;;0.82;0.30;;;24.70;40.50;;;;;;4926918;28;44688;-72
2023/01/16 13:47:17;;;;;;;0.40;0.20;;;24.70;40.50;;;;;;4911076;28;45085;-71
2023/01/16 13:49:48;;;;;;;0.65;0.32;;;24.60;40.50;;;;;;4888713;28;45297;-73
2023/01/16 13:52:25;;;;;;;0.47;0.20;;;24.70;40.70;;;;;;4918852;28;45469;-73
2023/01/16 13:54:53;;;;;;;0.38;0.30;;;24.70;40.50;;;;;;4885104;28;45194;-72
2023/01/16 13:57:23;;;;;;;0.38;0.10;;;24.70;40.80;;;;;;4899933;28;45190;-73
2023/01/16 13:59:59;;;;;;;0.20;0.20;;;24.70;40.80;;;;;;4916299;28;45497;-72
2023/01/16 14:02:36;;;;;;;0.25;0.20;;;24.70;40.50;;;;;;4898094;28;45119;-71
2023/01/16 14:05:08;;;;;;;0.75;0.28;;;24.70;40.50;;;;;;4903582;28;45135;-72
2023/01/16 14:10:58;;;;;;;0.52;0.20;;;24.70;40.50;;;;;;4929647;28;45096;-71
2023/01/16 14:13:31;;;;;;;0.32;0.17;;;24.70;40.40;;;;;;4917071;28;45174;-73
2023/01/16 14:19:14;;;;;;;0.20;0.17;;;24.70;40.70;;;;;;4904715;28;45311;-73
2023/01/16 14:24:00;;;;;;;1.45;0.20;;;24.70;40.50;;;;;;4917612;28;45500;-71
2023/01/16 14:24:36;;;;;;;0.50;0.22;;;24.70;40.80;;;;;;4890204;28;45404;-73
2023/01/16 14:27:02;;;;;;;0.55;0.20;;;24.70;40.90;;;;;;4885243;28;45128;-72
2023/01/16 14:29:35;;;;;;;0.28;0.25;;;24.70;40.90;;;;;;4892499;28;45288;-74
2023/01/16 14:32:13;;;;;;;0.30;0.10;;;24.70;40.80;;;;;;4918220;28;45393;-73
2023/01/16 14:34:44;;;;;;;0.20;0.10;;;24.70;40.60;;;;;;4919038;28;45559;-72
2023/01/16 14:37:29;;;;;;;0.25;0.20;;;24.70;40.90;;;;;;4872200;28;45053;-78
2023/01/16 14:39:56;;;;;;;0.22;0.20;;;24.80;40.60;;;;;;4922880;28;45392;-79
2023/01/16 14:56:41;;;;;;;1.08;0.15;;;24.50;41.10;;;;;;4915332;28;45177;-77
2023/01/16 14:59:10;;;;;;;0.13;0.10;;;24.60;41.60;;;;;;4879464;28;45282;-77
2023/01/16 15:05:06;;;;;;;0.22;0.22;;;24.50;41.00;;;;;;4831141;29;47139;-77
2023/01/16 15:07:36;;;;;;;0.20;0.20;;;24.50;41.30;;;;;;4836233;29;45580;-77
2023/01/16 15:10:27;;;;;;;0.43;0.20;;;24.50;41.30;;;;;;4853454;28;45585;-77
2023/01/16 15:12:52;;;;;;;0.28;0.20;;;24.50;41.30;;;;;;4888653;28;45271;-77
2023/01/16 15:15:23;;;;;;;0.25;0.10;;;24.40;41.30;;;;;;4912372;28;45304;-78
2023/01/16 15:23:45;;;;;;;0.20;0.13;;;24.40;41.40;;;;;;4900750;28;44778;-76
2023/01/16 15:26:24;;;;;;;0.20;0.10;;;24.40;41.40;;;;;;4909991;28;46470;-77
2023/01/16 15:29:00;;;;;;;0.47;0.20;;;24.40;41.40;;;;;;4910070;28;45113;-77
2023/01/16 15:31:32;;;;;;;0.15;0.10;;;24.40;41.40;;;;;;4908376;28;45318;-77
2023/01/16 15:34:00;;;;;;;1.85;0.32;;;24.40;41.40;;;;;;4900917;28;45192;-76
2023/01/16 15:36:40;;;;;;;0.85;0.28;;;24.40;41.50;;;;;;4891655;28;45566;-77
2023/01/16 15:39:52;;;;;;;0.20;0.20;;;24.40;41.30;;;;;;4889297;28;45208;-77
2023/01/16 15:48:15;;;;;;;;;;;24.40;41.40;;;;;;4901889;28;45603;-77
2023/01/16 15:50:50;;;;;;;0.10;0.10;;;24.40;41.20;;;;;;4892940;28;45381;-77
2023/01/16 15:53:17;;;;;;;0.20;0.20;;;24.40;41.40;;;;;;4908592;28;45361;-77
2023/01/16 15:55:44;;;;;;;0.17;0.17;;;24.40;41.50;;;;;;4907285;28;45865;-77
2023/01/16 15:58:14;;;;;;;0.20;0.20;;;24.40;41.50;;;;;;4883989;28;45429;-77
2023/01/16 16:00:41;;;;;;;0.17;0.17;;;24.40;41.50;;;;;;4893467;28;44915;-77
2023/01/16 16:03:20;;;;;;;0.25;0.10;;;24.40;41.50;;;;;;4908374;28;45153;-77
2023/01/16 16:05:47;;;;;;;0.63;0.20;;;24.40;41.40;;;;;;4912937;28;45162;-78
2023/01/16 16:08:21;;;;;;;0.43;0.10;;;24.40;41.60;;;;;;4911810;28;46333;-77
2023/01/16 16:13:31;;;;;;;0.68;0.10;;;24.40;41.60;;;;;;4914679;28;44687;-77
2023/01/16 16:18:57;;;;;;;0.10;0.10;;;24.40;41.50;;;;;;4898480;28;46657;-77
2023/01/16 16:21:24;;;;;;;0.35;0.20;;;24.40;41.40;;;;;;4904821;28;45260;-77
2023/01/16 16:23:54;;;;;;;0.57;0.20;;;24.40;41.50;;;;;;4907653;28;45552;-78
2023/01/16 16:26:20;;;;;;;0.30;0.20;;;24.40;41.50;;;;;;4881911;28;45674;-77
2023/01/16 16:28:46;;;;;;;0.20;0.10;;;24.40;41.50;;;;;;4898024;28;47059;-76
2023/01/16 16:31:26;;;;;;;0.50;0.20;;;24.40;41.50;;;;;;4882177;28;44770;-77
2023/01/16 16:33:58;;;;;;;0.10;0.10;;;24.40;41.40;;;;;;4880864;28;45240;-76
2023/01/16 16:36:23;;;;;;;0.45;0.15;;;24.40;41.60;;;;;;4900709;28;45517;-76
2023/01/16 16:38:50;;;;;;;0.52;0.30;;;24.40;41.60;;;;;;4875933;28;45181;-77
2023/01/16 16:41:16;;;;;;;0.60;0.30;;;24.40;41.60;;;;;;4883967;28;44695;-77
2023/01/16 16:43:51;;;;;;;0.30;0.20;;;24.40;41.60;;;;;;4896545;28;45244;-78
2023/01/16 16:46:23;;;;;;;0.40;0.28;;;24.40;41.50;;;;;;4889451;28;45283;-77
2023/01/16 16:48:49;;;;;;;0.10;0.10;;;24.40;41.50;;;;;;4921824;28;45385;-79
2023/01/16 16:51:31;;;;;;;0.05;0.05;;;24.40;41.60;;;;;;4890271;28;45210;-78
2023/01/16 16:54:04;;;;;;;0.30;0.20;;;24.40;41.30;;;;;;4891224;28;45209;-79
2023/01/16 16:56:30;;;;;;;0.50;0.20;;;24.50;41.50;;;;;;4915086;28;45254;-79
2023/01/16 16:58:55;;;;;;;0.32;0.20;;;24.40;42.20;;;;;;4893655;28;45553;-78
2023/01/16 17:01:22;;;;;;;0.47;0.28;;;24.50;41.60;;;;;;4889160;28;45203;-78
2023/01/16 17:04:01;;;;;;;0.30;0.20;;;24.40;41.50;;;;;;4893805;28;45454;-76
2023/01/16 17:06:31;;;;;;;0.22;0.10;;;24.50;41.50;;;;;;4873360;28;45517;-75
2023/01/16 17:08:57;;;;;;;0.10;0.10;;;24.40;41.50;;;;;;4905439;28;47767;-76
2023/01/16 17:11:22;;;;;;;0.45;0.30;;;24.40;41.70;;;;;;4888206;28;45282;-76
2023/01/16 17:13:48;;;;;;;0.28;0.20;;;24.30;41.80;;;;;;4881320;28;45051;-76
2023/01/16 17:16:21;;;;;;;0.17;0.17;;;24.20;41.90;;;;;;4887791;28;45268;-76
2023/01/16 17:18:46;;;;;;;0.30;0.20;;;24.10;41.90;;;;;;4869696;28;46902;-76
2023/01/16 17:21:15;;;;;;;0.20;0.20;;;24.00;42.10;;;;;;4902731;28;44954;-76
2023/01/16 17:23:42;;;;;;;1.35;0.20;;;23.80;42.20;;;;;;4869622;28;45134;-76
2023/01/16 17:26:09;;;;;;;0.28;0.20;;;23.70;42.30;;;;;;4874509;28;45253;-76
2023/01/16 17:28:35;;;;;;;0.20;0.20;;;23.60;42.50;;;;;;4856800;28;47920;-76
2023/01/16 17:31:01;;;;;;;0.30;0.30;;;23.50;42.60;;;;;;4860506;28;45308;-76
2023/01/16 17:33:29;;;;;;;0.10;0.10;;;23.50;42.70;;;;;;4853214;28;45384;-77
2023/01/16 17:36:10;;;;;;;0.20;0.20;;;23.40;42.70;;;;;;4883532;28;45263;-76
2023/01/16 17:38:40;;;;;;;0.20;0.20;;;23.30;42.90;;;;;;4873304;28;46925;-76
2023/01/16 17:41:11;;;;;;;0.30;0.20;;;23.20;43.00;;;;;;4884309;28;44983;-76
2023/01/16 17:46:23;;;;;;;0.22;0.20;;;23.00;43.20;;;;;;4876271;28;45596;-76
2023/01/16 17:48:49;;;;;;;0.20;0.20;;;22.90;43.30;;;;;;4868969;28;47194;-76
2023/01/16 17:51:15;;;;;;;0.13;0.13;;;22.80;43.40;;;;;;4855093;28;44760;-77
2023/01/16 17:53:41;;;;;;;0.38;0.20;;;22.80;43.50;;;;;;4881899;28;44792;-77
2023/01/16 17:56:07;;;;;;;0.20;0.20;;;22.70;43.60;;;;;;4870070;28;46119;-76
2023/01/16 18:01:32;;;;;;;0.40;0.20;;;22.50;43.70;;;;;;4873961;28;45256;-76
2023/01/16 18:04:01;;;;;;;0.43;0.20;;;22.40;43.80;;;;;;4898956;28;45282;-76
2023/01/16 18:06:34;;;;;;;;;;;22.40;43.90;;;;;;4890896;28;44792;-76
2023/01/16 18:09:06;;;;;;;0.30;0.20;;;22.30;44.10;;;;;;4890660;28;45242;-76
2023/01/16 18:19:44;;;;;;;0.40;0.20;;;22.00;44.40;;;;;;4891130;28;45932;-76
2023/01/16 18:22:10;;;;;;;0.50;0.28;;;21.80;44.50;;;;;;4897429;28;44750;-76
2023/01/16 18:24:37;;;;;;;0.28;0.28;;;21.80;44.60;;;;;;4892420;28;45511;-76
2023/01/16 18:27:07;;;;;;;0.20;0.20;;;21.80;44.60;;;;;;4885658;28;45327;-76
2023/01/16 18:29:34;;;;;;;0.25;0.20;;;21.70;44.60;;;;;;4879409;28;47001;-76
2023/01/16 18:34:57;;;;;;;0.32;0.20;;;21.60;44.80;;;;;;4890638;28;45499;-75
2023/01/16 18:37:30;;;;;;;0.40;0.17;;;21.50;44.90;;;;;;4875367;28;45281;-76
2023/01/16 19:02:11;;;;;;;0.22;0.20;;;21.00;45.30;;;;;;4889388;28;47246;-76
2023/01/16 19:04:36;;;;;;;0.25;0.25;;;20.90;45.40;;;;;;4913835;28;44904;-76
2023/01/16 19:07:07;;;;;;;0.20;0.20;;;20.80;45.40;;;;;;4884846;28;45310;-75
2023/01/16 19:09:32;;;;;;;0.40;0.32;;;20.80;45.50;;;;;;4888058;28;45221;-76
2023/01/16 19:11:58;;;;;;;0.10;0.10;;;20.80;45.50;;;;;;4888159;28;45219;-75
2023/01/16 19:14:27;;;;;;;0.10;0.10;;;20.70;45.50;;;;;;4876714;28;45477;-76
2023/01/16 19:16:58;;;;;;;0.45;0.38;;;20.70;45.60;;;;;;4889863;28;45584;-75
2023/01/16 19:19:27;;;;;;;1.08;0.10;;;20.60;45.60;;;;;;4871317;28;45325;-76
2023/01/16 19:21:53;;;;;;;0.60;0.20;;;20.50;45.50;;;;;;4902003;28;45647;-76
2023/01/16 19:24:19;;;;;;;0.25;0.25;;;20.50;45.70;;;;;;4877676;28;45050;-76
2023/01/16 19:26:44;;;;;;;0.22;0.15;;;20.40;45.70;;;;;;4874519;28;44746;-76
2023/01/16 19:29:17;;;;;;;0.30;0.30;;;20.40;45.70;;;;;;4858394;28;45192;-76